createdAt,value
2023-03-15T00:01:18.633Z,99.90
2023-03-15T00:06:20.772Z,99.90
2023-03-15T00:11:22.614Z,99.90
2023-03-15T00:16:27.120Z,99.90
2023-03-15T00:21:31.610Z,99.90
2023-03-15T00:26:33.341Z,99.90
2023-03-15T00:31:36.056Z,99.90
2023-03-15T00:36:37.961Z,99.90
2023-03-15T00:41:39.732Z,99.90
2023-03-15T00:46:41.503Z,99.90
2023-03-15T00:51:43.435Z,99.90
2023-03-15T00:56:45.269Z,99.90
2023-03-15T01:01:47.012Z,99.90
2023-03-15T01:06:48.800Z,99.90
2023-03-15T01:11:50.682Z,99.90
2023-03-15T01:16:52.603Z,99.90
2023-03-15T01:21:54.481Z,99.90
2023-03-15T01:26:56.216Z,99.90
2023-03-15T01:31:58.085Z,99.90
2023-03-15T01:37:00.953Z,99.90
2023-03-15T01:42:03.037Z,99.90
2023-03-15T01:47:04.955Z,99.90
2023-03-15T01:52:08.548Z,99.90
2023-03-15T01:57:39.263Z,99.90
2023-03-15T02:02:55.776Z,99.90
2023-03-15T02:07:58.039Z,99.90
2023-03-15T02:12:59.813Z,99.90
2023-03-15T02:18:01.529Z,99.90
2023-03-15T02:23:11.702Z,99.90
2023-03-15T02:28:16.354Z,99.90
2023-03-15T02:33:41.808Z,99.90
2023-03-15T02:38:43.586Z,99.90
2023-03-15T02:43:48.544Z,99.90
2023-03-15T02:48:54.172Z,99.90
2023-03-15T02:53:56.238Z,99.90
2023-03-15T02:58:58.239Z,99.90
2023-03-15T03:03:59.991Z,99.90
2023-03-15T03:09:03.091Z,99.90
2023-03-15T03:14:05.653Z,99.90
2023-03-15T03:19:07.413Z,99.90
2023-03-15T03:24:10.506Z,99.90
2023-03-15T03:29:16.474Z,99.90
2023-03-15T03:34:19.818Z,99.90
2023-03-15T03:39:21.510Z,99.90
2023-03-15T03:44:23.282Z,99.90
2023-03-15T03:49:25.074Z,99.90
2023-03-15T03:54:27.310Z,99.90
2023-03-15T03:59:29.392Z,99.90
2023-03-15T04:04:31.241Z,99.90
2023-03-15T04:09:37.263Z,99.90
2023-03-15T04:14:39.237Z,99.90
2023-03-15T04:19:41.091Z,99.90
2023-03-15T04:24:43.043Z,99.90
2023-03-15T04:29:44.856Z,99.90
2023-03-15T04:34:51.331Z,99.90
2023-03-15T04:39:53.536Z,99.90
2023-03-15T04:44:55.526Z,99.90
2023-03-15T04:49:57.237Z,99.90
2023-03-15T04:54:58.950Z,99.90
2023-03-15T05:00:00.937Z,99.90
2023-03-15T05:05:02.969Z,99.90
2023-03-15T05:10:06.451Z,99.90
2023-03-15T05:15:09.179Z,99.90
2023-03-15T05:20:12.567Z,99.90
2023-03-15T05:25:15.380Z,99.90
2023-03-15T05:30:17.320Z,99.90
2023-03-15T05:35:19.204Z,99.90
2023-03-15T05:40:21.023Z,99.90
2023-03-15T05:45:23.032Z,99.90
2023-03-15T05:50:24.872Z,99.90
2023-03-15T05:55:26.643Z,99.90
2023-03-15T06:00:28.925Z,99.90
2023-03-15T06:05:30.746Z,99.90
2023-03-15T06:10:33.760Z,99.90
2023-03-15T06:15:35.517Z,99.90
2023-03-15T06:20:38.023Z,99.90
2023-03-15T06:25:39.813Z,99.90
2023-03-15T06:30:41.710Z,99.90
2023-03-15T06:35:43.619Z,99.90
2023-03-15T06:40:45.537Z,99.90
2023-03-15T06:45:47.335Z,99.90
2023-03-15T06:50:49.247Z,99.90
2023-03-15T06:55:52.283Z,99.90
2023-03-15T07:00:54.147Z,99.90
2023-03-15T07:05:56.015Z,99.90
2023-03-15T07:10:57.908Z,99.90
2023-03-15T07:15:59.730Z,99.90
2023-03-15T07:21:04.107Z,99.90
2023-03-15T07:26:05.924Z,99.90
2023-03-15T07:31:07.739Z,99.90
2023-03-15T07:36:09.644Z,99.90
2023-03-15T07:41:11.585Z,99.90
2023-03-15T07:46:13.383Z,99.90
2023-03-15T07:51:15.124Z,99.90
2023-03-15T07:56:16.887Z,99.90
2023-03-15T08:01:18.758Z,99.90
2023-03-15T08:06:20.560Z,99.90
2023-03-15T08:11:22.280Z,99.90
2023-03-15T08:16:24.300Z,99.90
2023-03-15T08:21:26.088Z,99.90
2023-03-15T08:26:28.000Z,99.90
2023-03-15T08:31:31.211Z,99.90
2023-03-15T08:36:33.058Z,99.90
2023-03-15T08:41:35.505Z,99.90
2023-03-15T08:46:37.332Z,99.90
2023-03-15T08:51:39.248Z,99.90
2023-03-15T08:56:42.558Z,99.90
2023-03-15T09:01:45.296Z,99.90
2023-03-15T09:06:47.061Z,99.90
2023-03-15T09:11:49.071Z,99.90
2023-03-15T09:16:51.034Z,99.90
2023-03-15T09:21:52.810Z,99.90
2023-03-15T09:26:54.561Z,99.90
2023-03-15T09:31:57.306Z,99.90
2023-03-15T09:36:59.053Z,99.90
2023-03-15T09:42:04.744Z,99.90
2023-03-15T09:47:37.284Z,99.90
2023-03-15T09:52:48.371Z,99.90
2023-03-15T09:58:01.124Z,99.90
2023-03-15T10:03:07.308Z,99.90
2023-03-15T10:08:17.992Z,99.90
2023-03-15T10:13:37.681Z,99.90
2023-03-15T10:19:27.566Z,99.90
2023-03-15T10:25:12.725Z,99.90
2023-03-15T10:30:24.290Z,97.70
2023-03-15T10:35:26.440Z,92.90
2023-03-15T10:40:42.573Z,94.90
2023-03-15T10:45:48.660Z,96.00
2023-03-15T10:50:51.316Z,92.70
2023-03-15T10:56:03.077Z,94.70
2023-03-15T11:01:07.597Z,91.10
2023-03-15T11:06:21.802Z,92.70
2023-03-15T11:11:23.704Z,91.00
2023-03-15T11:16:25.505Z,90.40
2023-03-15T11:21:36.891Z,90.10
2023-03-15T11:26:41.078Z,90.20
2023-03-15T11:31:42.953Z,89.30
2023-03-15T11:36:49.098Z,87.80
2023-03-15T11:41:59.388Z,90.00
2023-03-15T11:47:28.633Z,88.10
2023-03-15T11:52:30.809Z,90.70
2023-03-15T11:57:38.066Z,89.00
2023-03-15T12:02:48.604Z,82.90
2023-03-15T12:08:21.598Z,84.10
2023-03-15T12:13:29.746Z,86.40
2023-03-15T12:18:38.892Z,88.90
2023-03-15T12:23:44.679Z,82.90
2023-03-15T12:29:27.963Z,83.70
2023-03-15T12:34:49.613Z,80.90
2023-03-15T12:40:16.467Z,78.40
2023-03-15T12:45:18.220Z,75.20
2023-03-15T12:50:52.491Z,77.90
2023-03-15T12:56:06.229Z,76.80
2023-03-15T13:01:16.296Z,79.50
2023-03-15T13:06:33.201Z,81.70
2023-03-15T13:11:44.447Z,81.90
2023-03-15T13:16:58.055Z,75.40
2023-03-15T13:22:32.070Z,76.80
2023-03-15T13:27:55.043Z,75.80
2023-03-15T13:33:11.144Z,78.40
2023-03-15T13:38:32.890Z,77.20
2023-03-15T13:43:37.872Z,77.50
2023-03-15T13:48:44.528Z,78.40
2023-03-15T13:53:50.460Z,78.30
2023-03-15T13:58:52.562Z,77.60
2023-03-15T14:04:01.775Z,72.50
2023-03-15T14:09:16.818Z,72.30
2023-03-15T14:14:27.918Z,73.50
2023-03-15T14:19:32.924Z,71.50
2023-03-15T14:24:38.399Z,69.70
2023-03-15T14:29:47.561Z,71.60
2023-03-15T14:34:49.663Z,75.00
2023-03-15T14:39:51.688Z,71.20
2023-03-15T14:44:53.574Z,68.70
2023-03-15T14:49:55.734Z,68.60
2023-03-15T14:54:58.897Z,68.70
2023-03-15T15:00:01.383Z,71.70
2023-03-15T15:05:25.553Z,70.90
2023-03-15T15:10:27.703Z,66.00
2023-03-15T15:15:31.016Z,68.60
2023-03-15T15:20:35.412Z,65.90
2023-03-15T15:25:37.413Z,66.40
2023-03-15T15:30:39.162Z,67.00
2023-03-15T15:35:41.182Z,70.10
2023-03-15T15:40:43.120Z,71.90
2023-03-15T15:45:44.906Z,71.80
2023-03-15T15:50:46.694Z,73.20
2023-03-15T15:55:48.552Z,71.50
2023-03-15T16:00:50.994Z,70.00
2023-03-15T16:05:53.021Z,70.30
2023-03-15T16:10:54.991Z,73.50
2023-03-15T16:15:56.995Z,72.40
2023-03-15T16:21:00.086Z,70.00
2023-03-15T16:26:02.094Z,73.40
2023-03-15T16:31:03.864Z,71.30
2023-03-15T16:36:06.431Z,75.40
2023-03-15T16:41:12.866Z,77.70
2023-03-15T16:46:17.842Z,76.30
2023-03-15T16:51:19.950Z,78.40
2023-03-15T16:56:21.655Z,80.80
2023-03-15T17:01:25.889Z,80.30
2023-03-15T17:06:28.614Z,79.60
2023-03-15T17:11:31.633Z,81.20
2023-03-15T17:16:33.650Z,79.90
2023-03-15T17:21:36.400Z,80.50
2023-03-15T17:26:40.036Z,81.80
2023-03-15T17:31:42.183Z,83.60
2023-03-15T17:36:44.134Z,85.60
2023-03-15T17:41:48.128Z,87.20
2023-03-15T17:46:49.906Z,89.50
2023-03-15T17:51:51.671Z,89.50
2023-03-15T17:56:53.562Z,90.00
2023-03-15T18:01:55.326Z,90.70
2023-03-15T18:06:57.214Z,91.60
2023-03-15T18:11:59.012Z,92.30
2023-03-15T18:17:00.699Z,91.10
2023-03-15T18:22:02.866Z,91.20
2023-03-15T18:27:04.616Z,91.70
2023-03-15T18:32:06.594Z,92.20
2023-03-15T18:37:09.797Z,91.40
2023-03-15T18:42:11.705Z,91.50
2023-03-15T18:47:14.161Z,92.90
2023-03-15T18:52:16.200Z,92.90
2023-03-15T18:57:20.504Z,94.80
2023-03-15T19:02:22.284Z,94.10
2023-03-15T19:07:25.701Z,95.80
2023-03-15T19:12:27.400Z,95.60
2023-03-15T19:17:29.133Z,94.40
2023-03-15T19:22:31.447Z,95.40
2023-03-15T19:27:33.198Z,95.00
2023-03-15T19:32:34.942Z,97.70
2023-03-15T19:37:36.804Z,95.30
2023-03-15T19:42:39.017Z,96.60
2023-03-15T19:47:41.431Z,96.80
2023-03-15T19:52:46.317Z,96.40
2023-03-15T19:57:48.444Z,96.10
2023-03-15T20:02:50.184Z,96.10
2023-03-15T20:07:52.370Z,96.00
2023-03-15T20:12:58.929Z,96.70
2023-03-15T20:18:01.438Z,97.00
2023-03-15T20:23:03.703Z,97.20
2023-03-15T20:28:05.574Z,98.00
2023-03-15T20:33:08.179Z,98.40
2023-03-15T20:38:09.907Z,98.90
2023-03-15T20:43:12.504Z,99.90
2023-03-15T20:48:14.604Z,99.90
2023-03-15T20:53:16.317Z,99.90
2023-03-15T20:58:18.088Z,99.90
2023-03-15T21:03:19.962Z,99.90
2023-03-15T21:08:21.744Z,99.90
2023-03-15T21:13:24.186Z,99.90
2023-03-15T21:18:26.098Z,99.90
2023-03-15T21:23:31.172Z,99.90
2023-03-15T21:28:33.303Z,99.90
2023-03-15T21:33:35.721Z,99.90
2023-03-15T21:38:37.561Z,99.90
2023-03-15T21:43:39.561Z,99.90
2023-03-15T21:48:42.165Z,99.90
2023-03-15T21:53:46.333Z,99.90
2023-03-15T21:58:48.251Z,99.90
2023-03-15T22:03:53.200Z,99.90
2023-03-15T22:08:54.940Z,99.90
2023-03-15T22:13:56.901Z,99.90
2023-03-15T22:18:58.886Z,99.90
2023-03-15T22:24:00.809Z,99.90
2023-03-15T22:29:02.694Z,99.90
2023-03-15T22:34:05.468Z,99.90
2023-03-15T22:39:07.723Z,99.90
2023-03-15T22:44:09.789Z,99.90
2023-03-15T22:49:11.481Z,99.90
2023-03-15T22:54:13.228Z,99.90
2023-03-15T22:59:14.984Z,99.90
2023-03-15T23:04:16.769Z,99.90
2023-03-15T23:09:18.591Z,99.90
2023-03-15T23:14:20.426Z,99.90
2023-03-15T23:19:22.440Z,99.90
2023-03-15T23:24:24.668Z,99.90
2023-03-15T23:29:26.384Z,99.90
2023-03-15T23:34:28.246Z,99.90
2023-03-15T23:39:29.979Z,99.90
2023-03-15T23:44:33.301Z,99.90
2023-03-15T23:49:35.089Z,99.90
2023-03-15T23:54:41.213Z,99.90
2023-03-15T23:59:43.430Z,99.90
